This is the latest recevied weather packets stored in our database for station/object WW1TA. If no packets are shown the sender has not sent any weather packets the latest 1 day(s).
| Time | Temp. | Humidity | Pressure | Rain* | Wind** | Luminosity | Snow |
|---|---|---|---|---|---|---|---|
| 1836274839 | 21.11° C | 98% | 1019.4 hPa | 0 mm | 0 m/s | 0 W/m² | - |
| 1836274536 | 21.67° C | 98% | 1019.7 hPa | 0 mm | 0 m/s | 0 W/m² | - |
| 1836274390 | 21.11° C | 98% | 1019.4 hPa | 0 mm | 0 m/s | 0 W/m² | - |
| 1836274235 | 21.11° C | 98% | 1019.6 hPa | 0 mm | 0 m/s | 0 W/m² | - |
| 1836273934 | 21.67° C | 97% | 1019.5 hPa | 0 mm | 0 m/s | 0 W/m² | - |
| 1778060530 | 16.11° C | 97% | 1017.6 hPa | 0 mm | 0 m/s | 0 W/m² | - |
| 1778060229 | 16.11° C | 96% | 1017.7 hPa | 0 mm | 0 m/s | 0 W/m² | - |
| 1778059925 | 16.11° C | 96% | 1017.8 hPa | 0 mm | 0 m/s | 0 W/m² | - |
| 1778059623 | 16.11° C | 96% | 1017.7 hPa | 0 mm | 0 m/s | 0 W/m² | - |
| 1778059320 | 16.11° C | 96% | 1017.8 hPa | 0 mm | 0 m/s | 0 W/m² | - |
| 1778059018 | 16.11° C | 95% | 1017.8 hPa | 0 mm | 0 m/s | 0 W/m² | - |
| 1778058715 | 16.11° C | 95% | 1017.8 hPa | 0 mm | 0 m/s | 0 W/m² | - |
| 1778058413 | 16.11° C | 95% | 1017.8 hPa | 0 mm | 0 m/s | 0 W/m² | - |
| 1778058109 | 16.11° C | 95% | 1017.8 hPa | 0 mm | 0 m/s | 0 W/m² | - |
| 1778057806 | 16.67° C | 94% | 1017.8 hPa | 0 mm | 0 m/s | 0 W/m² | - |
| 1778057502 | 16.67° C | 94% | 1017.9 hPa | 0 mm | 0 m/s | 0 W/m² | - |
| 1778057199 | 17.22° C | 95% | 1017.8 hPa | 0 mm | 0 m/s | 0 W/m² | - |
| 1778056896 | 16.67° C | 94% | 1018 hPa | 0 mm | 0 m/s | 0 W/m² | - |
| 1778056593 | 16.67° C | 94% | 1018 hPa | 0 mm | 0 m/s | 0 W/m² | - |
| 1778056291 | 16.67° C | 94% | 1017.9 hPa | 0 mm | 0 m/s | 0 W/m² | - |
| 1778055987 | 16.67° C | 94% | 1018 hPa | 0 mm | 0 m/s | 0 W/m² | - |
| 1778055682 | 16.67° C | 93% | 1018 hPa | 0 mm | 0 m/s | 0 W/m² | - |
| 1778055381 | 16.67° C | 93% | 1017.8 hPa | 0 mm | 0 m/s | 0 W/m² | - |
| 1778055078 | 17.22° C | 93% | 1017.8 hPa | 0 mm | 0 m/s | 0 W/m² | - |
| 1778054776 | 17.22° C | 93% | 1017.9 hPa | 0 mm | 0 m/s | 0 W/m² | - |
* Rain latest hour (hover to see other rain measurements)
** Current wind speed in m/s (hover to see current wind gust speed)